Pagrindinis puslapis
METAR-TAF:

METAR-TAF

Oro uostai :

Kemis, Suomija

platuma: 65-47N, ilguma: 024-35E, Aukštis: 15 m

Dabartinis oras

Ataskaita buvo paskelbta 41 minutes, ne 22:50 UTC
Vėjas 5 kt iš Pietų
Temperatūra 19°C
Drėgmė 100%
Slėgis 1013 hPa
Matomumas 10 km arba daugiau
Mažai debesys ne aukštis 4200 ft
lietus

METAR: EFKE 022250Z AUTO 19005KT 9999 -SHRA FEW042 //////CB 19/19 Q1013

Laikas: 02:31 (23:31 UTC)

Prognozė

Ataskaita buvo paskelbta 17 valandos ir 54 minutes, ne 05:37 UTC
Prognozė galioja nuo 02 metu 06 UTC su 02 metu 09 UTC
Vėjas 9 kt iš Pietų
Matomumas 10 km arba daugiau
nėra debesų žemiau 1500 m ir nėra kamuolinių lietaus debesų

TAF: EFKE 020537Z 0206/0209 17009KT CAVOK

Orai ataskaitas ir orų prognozės (METAR, TAF).

turimą stotys yra geltonos ir raudonos taškus žemėlapyje.

Perkelti pele per norėdami pamatyti stoties vardą.

Tada spustelėkite, norėdami matyti oro stebėjimo ir prognozės.

Norėdami pakeisti žemėlapį: spustelėkite ant žalios mygtukų su juodo kryžiaus žemyn,; žalią mygtuką su brūkšneliu, jei norite nutolinti; arba žalių rodyklių gretimoms žemėlapius.


METAR-TAF: